createdAt,value
2023-03-11T00:00:47.454Z,85.50
2023-03-11T00:03:26.059Z,24.60
2023-03-11T00:05:54.387Z,21.30
2023-03-11T00:08:24.244Z,25.50
2023-03-11T00:10:54.775Z,19.60
2023-03-11T00:13:22.898Z,13.40
2023-03-11T00:15:52.539Z,13.40
2023-03-11T00:18:20.153Z,12.60
2023-03-11T00:20:47.777Z,11.80
2023-03-11T00:23:15.963Z,14.20
2023-03-11T00:25:45.624Z,8.20
2023-03-11T00:28:14.900Z,12.00
2023-03-11T00:30:44.866Z,11.60
2023-03-11T00:33:15.095Z,7.30
2023-03-11T00:35:43.907Z,11.30
2023-03-11T00:38:18.551Z,10.20
2023-03-11T00:40:48.016Z,8.80
2023-03-11T00:43:17.061Z,10.30
2023-03-11T00:45:45.203Z,9.40
2023-03-11T00:48:13.936Z,11.40
2023-03-11T00:50:42.632Z,8.40
2023-03-11T00:53:10.853Z,9.90
2023-03-11T00:55:38.462Z,7.80
2023-03-11T00:58:07.053Z,9.00
2023-03-11T01:00:35.491Z,9.30
2023-03-11T01:03:03.642Z,7.20
2023-03-11T01:05:34.003Z,8.20
2023-03-11T01:08:02.546Z,9.80
2023-03-11T01:10:35.429Z,10.80
2023-03-11T01:13:04.055Z,5.50
2023-03-11T01:15:35.331Z,7.60
2023-03-11T01:18:03.251Z,7.10
2023-03-11T01:20:31.658Z,6.20
2023-03-11T01:22:59.245Z,6.90
2023-03-11T01:25:26.975Z,6.40
2023-03-11T01:27:54.567Z,5.90
2023-03-11T01:30:24.377Z,5.00
2023-03-11T01:32:53.513Z,6.70
2023-03-11T01:35:23.875Z,4.40
2023-03-11T01:37:51.795Z,4.10
2023-03-11T01:40:25.998Z,3.50
2023-03-11T01:42:53.592Z,3.70
2023-03-11T01:45:40.959Z,3.80
2023-03-11T01:48:10.108Z,2.70
2023-03-11T01:50:44.955Z,3.90
2023-03-11T01:53:14.719Z,3.70
2023-03-11T01:55:43.769Z,4.20
2023-03-11T01:58:16.941Z,3.10
2023-03-11T02:00:44.832Z,4.40
2023-03-11T02:03:30.259Z,3.60
2023-03-11T02:06:01.217Z,2.80
2023-03-11T02:08:28.927Z,3.40
2023-03-11T02:10:57.367Z,6.90
2023-03-11T02:13:25.060Z,4.20
2023-03-11T02:15:52.765Z,3.70
2023-03-11T02:18:20.966Z,4.20
2023-03-11T02:21:17.269Z,3.80
2023-03-11T02:23:56.195Z,3.30
2023-03-11T02:26:29.461Z,3.30
2023-03-11T02:28:58.284Z,3.40
2023-03-11T02:31:26.298Z,3.80
2023-03-11T02:33:54.909Z,3.80
2023-03-11T02:36:39.329Z,2.90
2023-03-11T02:39:08.696Z,2.80
2023-03-11T02:41:44.719Z,3.30
2023-03-11T02:44:15.956Z,2.20
2023-03-11T02:46:44.253Z,4.10
2023-03-11T02:49:13.017Z,3.30
2023-03-11T02:51:40.597Z,3.60
2023-03-11T02:54:08.300Z,2.30
2023-03-11T02:56:35.874Z,2.80
2023-03-11T02:59:03.566Z,2.60
2023-03-11T03:01:31.186Z,2.20
2023-03-11T03:03:58.943Z,2.90
2023-03-11T03:06:26.601Z,2.00
2023-03-11T03:08:54.918Z,3.50
2023-03-11T03:11:22.590Z,2.40
2023-03-11T03:13:50.159Z,2.50
2023-03-11T03:16:17.948Z,3.90
2023-03-11T03:18:45.757Z,2.50
2023-03-11T03:21:13.333Z,3.70
2023-03-11T03:23:40.957Z,2.90
2023-03-11T03:26:12.280Z,2.20
2023-03-11T03:28:39.902Z,2.80
2023-03-11T03:31:09.299Z,3.60
2023-03-11T03:33:37.246Z,3.50
2023-03-11T03:36:10.518Z,3.50
2023-03-11T03:38:38.390Z,3.10
2023-03-11T03:41:06.377Z,3.10
2023-03-11T03:43:33.929Z,4.10
2023-03-11T03:46:04.251Z,4.30
2023-03-11T03:48:32.576Z,2.80
2023-03-11T03:51:06.299Z,2.80
2023-03-11T03:53:35.575Z,3.10
2023-03-11T03:56:10.910Z,3.50
2023-03-11T03:58:38.525Z,3.30
2023-03-11T04:01:07.009Z,4.20
2023-03-11T04:03:35.364Z,3.20
2023-03-11T04:06:07.307Z,4.40
2023-03-11T04:08:34.859Z,3.60
2023-03-11T04:11:03.145Z,3.90
2023-03-11T04:13:30.725Z,2.60
2023-03-11T04:15:58.479Z,3.40
2023-03-11T04:18:26.305Z,4.60
2023-03-11T04:20:53.946Z,3.10
2023-03-11T04:23:21.591Z,3.30
2023-03-11T04:25:49.164Z,4.80
2023-03-11T04:28:16.762Z,3.70
2023-03-11T04:30:44.369Z,3.80
2023-03-11T04:33:12.097Z,4.90
2023-03-11T04:35:39.710Z,2.50
2023-03-11T04:38:07.435Z,3.50
2023-03-11T04:40:37.183Z,3.30
2023-03-11T04:43:05.124Z,4.80
2023-03-11T04:45:32.796Z,3.10
2023-03-11T04:48:00.352Z,4.60
2023-03-11T04:50:27.908Z,2.70
2023-03-11T04:52:55.528Z,3.80
2023-03-11T04:55:23.303Z,6.70
2023-03-11T04:57:50.898Z,4.10
2023-03-11T05:00:18.963Z,3.40
2023-03-11T05:02:46.669Z,3.40
2023-03-11T05:05:14.275Z,3.10
2023-03-11T05:07:41.989Z,3.70
2023-03-11T05:10:10.180Z,4.20
2023-03-11T05:12:37.793Z,3.80
2023-03-11T05:15:05.922Z,5.10
2023-03-11T05:17:33.551Z,3.10
2023-03-11T05:20:01.109Z,2.70
2023-03-11T05:22:28.675Z,2.90
2023-03-11T05:24:56.225Z,3.60
2023-03-11T05:27:23.837Z,3.10
2023-03-11T05:29:51.628Z,4.60
2023-03-11T05:32:19.248Z,3.10
2023-03-11T05:34:47.011Z,4.50
2023-03-11T05:37:15.740Z,3.10
2023-03-11T05:39:43.293Z,4.70
2023-03-11T05:42:10.858Z,5.50
2023-03-11T05:44:38.507Z,4.00
2023-03-11T05:47:06.214Z,3.80
2023-03-11T05:49:33.927Z,4.10
2023-03-11T05:52:01.559Z,3.30
2023-03-11T05:54:30.048Z,2.30
2023-03-11T05:56:57.585Z,2.40
2023-03-11T05:59:25.158Z,2.70
2023-03-11T06:01:52.707Z,3.40
2023-03-11T06:04:20.596Z,2.70
2023-03-11T06:06:48.273Z,3.60
2023-03-11T06:09:16.187Z,3.10
2023-03-11T06:11:43.805Z,4.00
2023-03-11T06:14:13.310Z,2.90
2023-03-11T06:16:41.834Z,3.20
2023-03-11T06:19:09.637Z,4.40
2023-03-11T06:21:37.226Z,3.30
2023-03-11T06:24:05.184Z,3.50
2023-03-11T06:26:32.771Z,3.60
2023-03-11T06:29:00.316Z,4.20
2023-03-11T06:31:29.348Z,5.10
2023-03-11T06:33:57.093Z,4.80
2023-03-11T06:36:25.041Z,3.00
2023-03-11T06:38:54.218Z,5.20
2023-03-11T06:41:21.880Z,4.40
2023-03-11T06:43:49.866Z,4.80
2023-03-11T06:46:19.980Z,4.40
2023-03-11T06:51:15.934Z,4.90
2023-03-11T06:53:44.067Z,4.70
2023-03-11T06:56:13.591Z,5.70
2023-03-11T06:58:42.341Z,5.50
2023-03-11T07:01:23.822Z,6.00
2023-03-11T07:03:51.982Z,7.30
2023-03-11T07:06:25.748Z,5.20
2023-03-11T07:08:54.382Z,5.70
2023-03-11T07:11:24.936Z,5.20
2023-03-11T07:13:53.992Z,4.40
2023-03-11T07:16:27.321Z,5.90
2023-03-11T07:18:57.753Z,4.70
2023-03-11T07:21:25.745Z,5.40
2023-03-11T07:23:59.285Z,4.20
2023-03-11T07:26:28.382Z,4.10
2023-03-11T07:28:57.394Z,3.90
2023-03-11T07:31:27.607Z,4.80
2023-03-11T07:33:58.032Z,5.90
2023-03-11T07:38:59.067Z,4.40
2023-03-11T07:41:27.029Z,4.90
2023-03-11T07:43:56.471Z,3.30
2023-03-11T07:46:25.982Z,4.60
2023-03-11T07:48:53.939Z,5.70
2023-03-11T07:51:25.374Z,4.10
2023-03-11T07:53:55.555Z,5.00
2023-03-11T07:56:24.846Z,4.60
2023-03-11T07:58:53.415Z,4.50
2023-03-11T08:01:24.861Z,6.30
2023-03-11T08:03:53.864Z,3.90
2023-03-11T08:06:25.456Z,3.60
2023-03-11T08:08:53.665Z,5.10
2023-03-11T08:11:21.318Z,4.10
2023-03-11T08:13:49.986Z,4.50
2023-03-11T08:16:20.035Z,5.40
2023-03-11T08:18:49.084Z,3.70
2023-03-11T08:21:20.102Z,6.00
2023-03-11T08:23:48.145Z,5.00
2023-03-11T08:26:18.431Z,4.80
2023-03-11T08:31:23.403Z,6.50
2023-03-11T08:33:53.681Z,4.00
2023-03-11T08:38:49.235Z,5.90
2023-03-11T08:41:17.264Z,7.40
2023-03-11T08:43:45.622Z,5.10
2023-03-11T08:46:24.705Z,6.10
2023-03-11T08:48:53.354Z,6.30
2023-03-11T08:51:22.337Z,4.00
2023-03-11T08:53:50.708Z,4.30
2023-03-11T08:56:19.055Z,6.70
2023-03-11T08:58:47.334Z,4.70
2023-03-11T09:01:15.063Z,6.10
2023-03-11T09:03:42.887Z,6.30
2023-03-11T09:06:14.404Z,5.00
2023-03-11T09:08:43.785Z,6.90
2023-03-11T09:11:12.162Z,6.20
2023-03-11T09:13:40.455Z,6.80
2023-03-11T09:16:16.794Z,7.70
2023-03-11T09:18:44.625Z,7.30
2023-03-11T09:21:12.947Z,8.80
2023-03-11T09:23:43.605Z,8.10
2023-03-11T09:26:12.777Z,6.50
2023-03-11T09:28:41.553Z,7.50
2023-03-11T09:31:09.454Z,7.70
2023-03-11T09:33:42.569Z,7.20
2023-03-11T09:36:15.484Z,5.90
2023-03-11T09:38:43.789Z,6.60
2023-03-11T09:41:22.263Z,6.80
2023-03-11T09:44:31.471Z,6.50
2023-03-11T09:47:20.842Z,6.50
2023-03-11T09:50:09.287Z,6.90
2023-03-11T09:53:20.298Z,5.90
2023-03-11T09:55:56.255Z,6.70
2023-03-11T09:58:35.879Z,5.70
2023-03-11T10:01:14.267Z,5.80
2023-03-11T10:03:42.955Z,6.10
2023-03-11T10:06:37.980Z,7.50
2023-03-11T10:09:39.401Z,7.20
2023-03-11T10:15:34.527Z,6.50
2023-03-11T10:18:17.154Z,9.00
2023-03-11T10:21:03.533Z,6.80
2023-03-11T10:23:46.591Z,8.20
2023-03-11T10:26:14.251Z,5.70
2023-03-11T10:28:47.145Z,7.80
2023-03-11T10:31:17.900Z,5.80
2023-03-11T10:33:58.904Z,8.10
2023-03-11T10:36:35.498Z,9.90
2023-03-11T10:39:05.129Z,9.80
2023-03-11T10:41:44.102Z,10.10
2023-03-11T10:44:28.660Z,9.30
2023-03-11T10:46:56.373Z,8.90
2023-03-11T10:49:23.973Z,12.30
2023-03-11T10:51:53.981Z,9.70
2023-03-11T10:54:37.740Z,7.50
2023-03-11T10:57:20.335Z,9.30
2023-03-11T10:59:50.979Z,8.10
2023-03-11T11:02:23.318Z,10.40
2023-03-11T11:05:02.985Z,7.90
2023-03-11T11:07:34.099Z,8.50
2023-03-11T11:10:25.236Z,9.00
2023-03-11T11:13:02.350Z,9.00
2023-03-11T11:15:36.642Z,8.70
2023-03-11T11:18:18.052Z,9.80
2023-03-11T11:21:01.596Z,9.20
2023-03-11T11:23:44.967Z,8.90
2023-03-11T11:26:22.835Z,7.50
2023-03-11T11:29:09.505Z,6.80
2023-03-11T11:31:39.465Z,7.80
2023-03-11T11:34:30.521Z,7.40
2023-03-11T11:37:00.883Z,9.00
2023-03-11T11:42:00.623Z,6.70
2023-03-11T11:44:34.833Z,5.10
2023-03-11T11:47:13.519Z,5.60
2023-03-11T11:49:50.792Z,6.70
2023-03-11T11:52:24.088Z,6.50
2023-03-11T11:54:54.119Z,6.30
2023-03-11T11:57:23.604Z,7.70
2023-03-11T11:59:51.302Z,6.10
2023-03-11T12:02:34.371Z,5.90
2023-03-11T12:05:15.113Z,4.40
2023-03-11T12:08:09.235Z,6.70
2023-03-11T12:10:42.787Z,5.40
2023-03-11T12:13:31.960Z,6.80
2023-03-11T12:16:06.524Z,8.50
2023-03-11T12:18:57.201Z,6.80
2023-03-11T12:22:06.250Z,9.40
2023-03-11T12:25:07.417Z,6.00
2023-03-11T12:27:44.728Z,4.30
2023-03-11T12:30:21.246Z,5.10
2023-03-11T12:32:56.686Z,5.70
2023-03-11T12:35:30.872Z,6.50
2023-03-11T12:38:01.509Z,5.90
2023-03-11T12:40:44.477Z,9.30
2023-03-11T12:43:23.899Z,7.80
2023-03-11T12:45:53.608Z,6.60
2023-03-11T12:48:30.053Z,5.70
2023-03-11T12:50:58.959Z,7.50
2023-03-11T12:53:44.568Z,7.00
2023-03-11T12:56:56.530Z,7.00
2023-03-11T13:00:01.959Z,5.40
2023-03-11T13:03:00.284Z,5.70
2023-03-11T13:05:46.196Z,6.60
2023-03-11T13:08:17.564Z,6.30
2023-03-11T13:10:55.789Z,5.10
2023-03-11T13:13:42.424Z,8.80
2023-03-11T13:16:12.833Z,7.30
2023-03-11T13:21:27.384Z,6.10
2023-03-11T13:26:47.211Z,5.30
2023-03-11T13:29:51.317Z,8.40
2023-03-11T13:32:34.149Z,6.10
2023-03-11T13:35:28.363Z,7.00
2023-03-11T13:38:34.139Z,9.30
2023-03-11T13:41:09.925Z,10.10
2023-03-11T13:43:46.791Z,8.00
2023-03-11T13:46:27.758Z,6.30
2023-03-11T13:49:05.146Z,6.50
2023-03-11T13:51:40.738Z,7.10
2023-03-11T13:54:17.139Z,7.40
2023-03-11T13:56:48.995Z,7.00
2023-03-11T13:59:31.636Z,9.60
2023-03-11T14:02:06.397Z,7.70
2023-03-11T14:04:36.721Z,6.20
2023-03-11T14:07:34.847Z,6.00
2023-03-11T14:10:11.307Z,5.60
2023-03-11T14:12:39.440Z,5.50
2023-03-11T14:15:15.958Z,8.00
2023-03-11T14:17:43.816Z,8.80
2023-03-11T14:20:20.975Z,7.90
2023-03-11T14:22:51.229Z,9.30
2023-03-11T14:25:24.441Z,7.70
2023-03-11T14:27:56.477Z,5.10
2023-03-11T14:30:27.935Z,5.90
2023-03-11T14:32:59.998Z,7.10
2023-03-11T14:35:28.429Z,7.10
2023-03-11T14:37:57.871Z,7.40
2023-03-11T14:40:27.216Z,7.70
2023-03-11T14:42:58.184Z,7.30
2023-03-11T14:45:29.864Z,6.30
2023-03-11T14:48:06.421Z,5.30
2023-03-11T14:50:35.155Z,7.30
2023-03-11T14:53:12.997Z,8.90
2023-03-11T14:55:51.127Z,7.50
2023-03-11T14:58:30.887Z,7.60
2023-03-11T15:01:05.240Z,9.00
2023-03-11T15:03:39.951Z,6.50
2023-03-11T15:06:16.579Z,5.10
2023-03-11T15:09:06.103Z,7.40
2023-03-11T15:11:45.652Z,8.10
2023-03-11T15:14:31.352Z,12.50
2023-03-11T15:17:41.164Z,11.80
2023-03-11T15:22:57.581Z,10.60
2023-03-11T15:25:25.418Z,11.30
2023-03-11T15:27:53.171Z,9.00
2023-03-11T15:30:28.277Z,9.90
2023-03-11T15:32:57.369Z,10.80
2023-03-11T15:35:29.960Z,9.20
2023-03-11T15:38:20.893Z,8.20
2023-03-11T15:40:59.511Z,10.40
2023-03-11T15:43:33.175Z,10.50
2023-03-11T15:46:02.910Z,7.80
2023-03-11T15:48:30.584Z,9.70
2023-03-11T15:51:00.388Z,8.80
2023-03-11T15:53:29.817Z,10.60
2023-03-11T15:56:07.453Z,7.60
2023-03-11T15:58:37.514Z,7.10
2023-03-11T16:01:05.261Z,4.50
2023-03-11T16:03:32.937Z,9.50
2023-03-11T16:06:00.568Z,8.90
2023-03-11T16:08:28.129Z,9.40
2023-03-11T16:10:55.864Z,8.80
2023-03-11T16:13:23.515Z,8.90
2023-03-11T16:15:51.190Z,9.60
2023-03-11T16:18:18.767Z,9.90
2023-03-11T16:20:49.765Z,8.80
2023-03-11T16:23:23.840Z,8.00
2023-03-11T16:25:56.941Z,12.20
2023-03-11T16:28:24.751Z,7.50
2023-03-11T16:30:52.402Z,7.70
2023-03-11T16:33:20.091Z,9.00
2023-03-11T16:35:47.890Z,8.20
2023-03-11T16:38:15.492Z,8.80
2023-03-11T16:40:43.223Z,7.90
2023-03-11T16:43:12.784Z,10.20
2023-03-11T16:45:40.396Z,8.70
2023-03-11T16:48:07.999Z,6.10
2023-03-11T16:50:37.457Z,6.20
2023-03-11T16:53:05.458Z,6.10
2023-03-11T16:55:33.186Z,7.40
2023-03-11T16:58:00.964Z,8.00
2023-03-11T17:00:28.538Z,9.90
2023-03-11T17:02:56.204Z,7.00
2023-03-11T17:05:23.928Z,10.50
2023-03-11T17:07:56.451Z,6.60
2023-03-11T17:10:24.175Z,8.60
2023-03-11T17:12:52.136Z,8.80
2023-03-11T17:15:20.235Z,11.10
2023-03-11T17:17:47.867Z,6.90
2023-03-11T17:20:15.467Z,7.50
2023-03-11T17:22:43.165Z,6.80
2023-03-11T17:25:10.834Z,6.40
2023-03-11T17:27:38.429Z,7.90
2023-03-11T17:30:07.531Z,7.20
2023-03-11T17:32:35.189Z,7.60
2023-03-11T17:35:03.170Z,10.90
2023-03-11T17:37:31.181Z,9.50
2023-03-11T17:39:58.864Z,8.00
2023-03-11T17:42:26.488Z,7.60
2023-03-11T17:44:57.689Z,8.30
2023-03-11T17:47:25.364Z,10.30
2023-03-11T17:49:53.313Z,7.30
2023-03-11T17:52:21.018Z,8.10
2023-03-11T17:54:48.859Z,6.30
2023-03-11T17:57:16.471Z,9.70
2023-03-11T17:59:45.181Z,11.40
2023-03-11T18:02:13.586Z,4.50
2023-03-11T18:04:41.403Z,10.50
2023-03-11T18:07:09.062Z,10.10
2023-03-11T18:09:36.803Z,9.40
2023-03-11T18:12:04.930Z,9.30
2023-03-11T18:14:33.024Z,7.70
2023-03-11T18:17:00.643Z,8.80
2023-03-11T18:19:28.240Z,9.10
2023-03-11T18:21:55.909Z,12.10
2023-03-11T18:24:23.508Z,8.90
2023-03-11T18:26:51.091Z,7.60
2023-03-11T18:29:19.110Z,10.10
2023-03-11T18:31:47.109Z,10.30
2023-03-11T18:34:14.951Z,10.70
2023-03-11T18:36:42.680Z,7.50
2023-03-11T18:39:11.108Z,9.90
2023-03-11T18:41:38.732Z,8.50
2023-03-11T18:44:06.909Z,8.10
2023-03-11T18:46:34.682Z,8.10
2023-03-11T18:49:03.591Z,7.50
2023-03-11T18:51:32.200Z,9.60
2023-03-11T18:54:00.855Z,7.90
2023-03-11T18:56:29.259Z,9.10
2023-03-11T18:58:58.766Z,5.90
2023-03-11T19:01:26.917Z,6.80
2023-03-11T19:03:57.743Z,10.10
2023-03-11T19:06:27.879Z,7.60
2023-03-11T19:08:55.729Z,4.80
2023-03-11T19:11:24.979Z,11.00
2023-03-11T19:13:53.178Z,10.70
2023-03-11T19:16:23.954Z,10.20
2023-03-11T19:18:53.006Z,8.00
2023-03-11T19:21:21.444Z,10.30
2023-03-11T19:23:49.129Z,7.90
2023-03-11T19:26:16.709Z,8.40
2023-03-11T19:28:44.333Z,13.30
2023-03-11T19:31:12.228Z,6.60
2023-03-11T19:33:39.894Z,7.00
2023-03-11T19:36:08.354Z,8.70
2023-03-11T19:38:36.006Z,9.40
2023-03-11T19:41:10.483Z,7.60
2023-03-11T19:43:38.199Z,8.00
2023-03-11T19:46:07.340Z,12.80
2023-03-11T19:48:35.322Z,9.90
2023-03-11T19:51:03.416Z,5.50
2023-03-11T19:53:31.266Z,7.10
2023-03-11T19:55:59.290Z,6.40
2023-03-11T19:58:30.558Z,11.00
2023-03-11T20:00:59.407Z,9.30
2023-03-11T20:03:27.081Z,6.90
2023-03-11T20:05:55.855Z,8.80
2023-03-11T20:08:25.667Z,9.40
2023-03-11T20:10:53.901Z,5.60
2023-03-11T20:13:22.394Z,7.10
2023-03-11T20:15:50.423Z,4.70
2023-03-11T20:18:18.420Z,9.40
2023-03-11T20:20:46.526Z,9.90
2023-03-11T20:23:14.779Z,10.60
2023-03-11T20:25:42.438Z,13.10
2023-03-11T20:28:10.566Z,12.30
2023-03-11T20:30:39.261Z,8.50
2023-03-11T20:33:08.000Z,5.70
2023-03-11T20:35:35.726Z,10.80
2023-03-11T20:38:03.399Z,12.30
2023-03-11T20:40:31.014Z,9.40
2023-03-11T20:42:58.614Z,3.80
2023-03-11T20:45:26.413Z,8.50
2023-03-11T20:47:54.136Z,5.70
2023-03-11T20:50:22.840Z,6.70
2023-03-11T20:52:51.004Z,6.60
2023-03-11T20:55:18.791Z,11.00
2023-03-11T20:57:46.701Z,8.70
2023-03-11T21:00:14.855Z,10.10
2023-03-11T21:02:43.380Z,9.60
2023-03-11T21:05:12.598Z,9.20
2023-03-11T21:07:43.801Z,12.00
2023-03-11T21:10:12.437Z,11.90
2023-03-11T21:12:40.250Z,6.60
2023-03-11T21:15:08.814Z,9.90
2023-03-11T21:17:37.589Z,11.00
2023-03-11T21:20:06.126Z,9.50
2023-03-11T21:22:33.957Z,6.30
2023-03-11T21:25:01.678Z,8.90
2023-03-11T21:27:29.368Z,6.80
2023-03-11T21:29:58.935Z,5.30
2023-03-11T21:32:28.258Z,9.00
2023-03-11T21:34:58.385Z,6.70
2023-03-11T21:37:27.231Z,6.40
2023-03-11T21:39:55.123Z,8.90
2023-03-11T21:42:23.592Z,12.50
2023-03-11T21:44:51.544Z,6.60
2023-03-11T21:47:19.621Z,10.60
2023-03-11T21:49:47.432Z,8.50
2023-03-11T21:52:15.070Z,10.40
2023-03-11T21:54:42.804Z,11.50
2023-03-11T21:57:10.504Z,9.80
2023-03-11T21:59:38.258Z,6.30
2023-03-11T22:02:06.405Z,9.70
2023-03-11T22:04:34.103Z,12.30
2023-03-11T22:07:01.915Z,14.10
2023-03-11T22:09:29.604Z,14.30
2023-03-11T22:11:57.259Z,13.40
2023-03-11T22:14:24.981Z,10.50
2023-03-11T22:16:53.047Z,11.60
2023-03-11T22:19:20.859Z,13.40
2023-03-11T22:21:48.664Z,19.50
2023-03-11T22:24:16.280Z,14.70
2023-03-11T22:26:43.865Z,14.70
2023-03-11T22:29:13.546Z,16.80
2023-03-11T22:31:41.461Z,15.60
2023-03-11T22:34:09.143Z,14.40
2023-03-11T22:36:36.722Z,14.30
2023-03-11T22:39:04.798Z,13.20
2023-03-11T22:41:33.184Z,12.60
2023-03-11T22:44:00.851Z,10.60
2023-03-11T22:46:28.871Z,9.50
2023-03-11T22:48:56.540Z,6.20
2023-03-11T22:51:24.164Z,14.10
2023-03-11T22:53:51.761Z,8.30
2023-03-11T22:56:19.441Z,7.50
2023-03-11T22:58:47.035Z,10.80
2023-03-11T23:01:14.576Z,12.80
2023-03-11T23:03:43.518Z,7.90
2023-03-11T23:06:15.230Z,8.80
2023-03-11T23:08:42.939Z,8.00
2023-03-11T23:11:14.506Z,12.60
2023-03-11T23:13:43.485Z,6.80
2023-03-11T23:16:17.530Z,10.00
2023-03-11T23:18:46.249Z,9.40
2023-03-11T23:21:19.570Z,9.30
2023-03-11T23:23:47.545Z,9.10
2023-03-11T23:26:15.701Z,7.90
2023-03-11T23:28:43.772Z,9.40
2023-03-11T23:31:14.133Z,9.40
2023-03-11T23:33:42.636Z,6.10
2023-03-11T23:36:13.925Z,5.50
2023-03-11T23:38:42.042Z,8.50
2023-03-11T23:41:12.802Z,7.00
2023-03-11T23:43:40.863Z,7.70
2023-03-11T23:46:09.694Z,8.60
2023-03-11T23:48:38.279Z,10.60
2023-03-11T23:51:05.923Z,11.60
2023-03-11T23:53:33.891Z,9.10
2023-03-11T23:56:01.733Z,8.60
2023-03-11T23:58:29.348Z,7.10
